createdAt,value
2022-10-04T00:03:10.628Z,16.00
2022-10-04T00:07:15.378Z,16.77
2022-10-04T00:11:32.117Z,18.77
2022-10-04T00:15:36.845Z,22.00
2022-10-04T00:19:41.771Z,20.63
2022-10-04T00:23:45.253Z,22.87
2022-10-04T00:28:08.441Z,19.53
2022-10-04T00:32:13.349Z,15.83
2022-10-04T00:36:27.120Z,15.57
2022-10-04T00:40:32.032Z,18.53
2022-10-04T00:45:00.688Z,25.00
2022-10-04T00:49:08.408Z,19.50
2022-10-04T00:53:13.165Z,22.43
2022-10-04T00:57:23.796Z,16.80
2022-10-04T01:01:28.318Z,14.80
2022-10-04T01:05:36.125Z,18.70
2022-10-04T01:09:40.886Z,18.80
2022-10-04T01:13:49.549Z,18.50
2022-10-04T01:18:13.772Z,17.77
2022-10-04T01:22:33.581Z,15.20
2022-10-04T01:26:40.158Z,13.97
2022-10-04T01:30:42.710Z,12.97
2022-10-04T01:34:44.270Z,12.30
2022-10-04T01:38:45.813Z,17.73
2022-10-04T01:42:56.161Z,18.60
2022-10-04T01:47:00.921Z,14.13
2022-10-04T01:51:10.192Z,16.80
2022-10-04T01:55:17.691Z,14.23
2022-10-04T01:59:25.090Z,17.00
2022-10-04T02:03:36.253Z,18.83
2022-10-04T02:07:40.147Z,15.23
2022-10-04T02:11:44.466Z,12.17
2022-10-04T02:15:46.892Z,11.83
2022-10-04T02:19:48.576Z,11.47
2022-10-04T02:23:51.715Z,10.83
2022-10-04T02:27:53.347Z,13.77
2022-10-04T02:32:12.677Z,13.43
2022-10-04T02:36:15.220Z,14.30
2022-10-04T02:40:20.350Z,11.97
2022-10-04T02:44:28.512Z,11.47
2022-10-04T02:48:39.115Z,10.67
2022-10-04T02:52:46.698Z,11.90
2022-10-04T02:56:54.404Z,10.80
2022-10-04T03:00:58.105Z,10.53
2022-10-04T03:05:08.653Z,12.70
2022-10-04T03:09:09.790Z,9.50
2022-10-04T03:13:15.386Z,9.53
2022-10-04T03:17:16.813Z,15.17
2022-10-04T03:21:19.806Z,13.03
2022-10-04T03:25:25.542Z,13.53
2022-10-04T03:29:29.538Z,14.30
2022-10-04T03:33:31.087Z,12.60
2022-10-04T03:37:35.723Z,11.23
2022-10-04T03:41:40.817Z,12.97
2022-10-04T03:45:42.069Z,15.03
2022-10-04T03:49:47.406Z,20.07
2022-10-04T03:53:50.823Z,10.97
2022-10-04T03:57:52.092Z,11.67
2022-10-04T04:06:18.721Z,10.70
2022-10-04T04:10:29.108Z,11.00
2022-10-04T04:14:30.268Z,12.40
2022-10-04T04:18:34.417Z,15.73
2022-10-04T04:22:37.149Z,17.07
2022-10-04T04:26:41.796Z,13.40
2022-10-04T04:30:49.431Z,13.37
2022-10-04T04:34:53.742Z,12.23
2022-10-04T04:39:16.772Z,12.10
2022-10-04T04:43:19.242Z,17.27
2022-10-04T04:47:33.205Z,13.20
2022-10-04T04:51:34.055Z,13.53
2022-10-04T04:56:02.378Z,11.33
2022-10-04T04:59:48.281Z,12.53
2022-10-04T05:04:12.800Z,12.80
2022-10-04T05:08:28.025Z,14.87
2022-10-04T05:12:31.100Z,17.65
2022-10-04T05:16:40.495Z,13.33
2022-10-04T05:20:45.894Z,16.13
2022-10-04T05:24:50.766Z,9.23
2022-10-04T05:28:52.338Z,9.43
2022-10-04T05:33:07.765Z,10.73
2022-10-04T05:37:31.001Z,11.90
2022-10-04T05:41:54.840Z,13.07
2022-10-04T05:46:14.592Z,16.10
2022-10-04T05:50:19.858Z,13.07
2022-10-04T05:54:23.543Z,15.23
2022-10-04T05:58:37.665Z,19.27
2022-10-04T06:03:01.387Z,16.17
2022-10-04T06:07:06.153Z,15.80
2022-10-04T06:11:19.894Z,16.87
2022-10-04T06:15:36.650Z,15.10
2022-10-04T06:20:03.959Z,16.07
2022-10-04T06:24:14.622Z,18.97
2022-10-04T06:28:25.310Z,15.00
2022-10-04T06:32:33.542Z,13.33
2022-10-04T06:36:53.041Z,13.83
2022-10-04T06:41:18.607Z,14.00
2022-10-04T06:45:56.793Z,12.27
2022-10-04T06:50:28.819Z,12.20
2022-10-04T06:54:45.534Z,12.33
2022-10-04T06:58:56.230Z,16.50
2022-10-04T07:03:16.854Z,19.80
2022-10-04T07:07:36.635Z,17.50
2022-10-04T07:11:47.597Z,11.47
2022-10-04T07:16:07.281Z,13.50
2022-10-04T07:20:30.651Z,16.60
2022-10-04T07:24:59.619Z,17.57
2022-10-04T07:29:22.216Z,27.80
2022-10-04T07:33:27.352Z,15.77
2022-10-04T07:37:30.226Z,14.30
2022-10-04T07:41:38.217Z,14.97
2022-10-04T07:45:41.076Z,10.00
2022-10-04T07:49:42.242Z,10.40
2022-10-04T07:53:51.410Z,12.20
2022-10-04T07:57:59.231Z,11.40
2022-10-04T08:02:30.976Z,10.73
2022-10-04T08:06:36.897Z,15.37
2022-10-04T08:10:57.446Z,16.37
2022-10-04T08:15:26.460Z,9.40
2022-10-04T08:19:40.236Z,8.87
2022-10-04T08:24:02.297Z,10.30
2022-10-04T08:28:49.967Z,7.83
2022-10-04T08:33:06.446Z,11.10
2022-10-04T08:37:28.245Z,9.97
2022-10-04T08:41:41.981Z,13.43
2022-10-04T08:46:09.392Z,10.03
2022-10-04T08:50:34.869Z,5.80
2022-10-04T08:55:03.459Z,7.27
2022-10-04T08:59:14.468Z,7.63
2022-10-04T09:03:26.095Z,6.63
2022-10-04T09:07:48.371Z,15.83
2022-10-04T09:12:08.828Z,5.70
2022-10-04T09:16:28.715Z,7.90
2022-10-04T09:20:43.927Z,6.37
2022-10-04T09:24:48.770Z,12.13
2022-10-04T09:29:21.398Z,11.03
2022-10-04T09:33:54.406Z,6.63
2022-10-04T09:38:16.749Z,7.20
2022-10-04T09:42:38.624Z,7.40
2022-10-04T09:46:47.966Z,8.90
2022-10-04T09:51:13.544Z,7.63
2022-10-04T09:55:37.235Z,6.73
2022-10-04T10:00:10.121Z,7.93
2022-10-04T10:04:21.208Z,7.37
2022-10-04T10:08:48.447Z,6.30
2022-10-04T10:13:17.379Z,6.90
2022-10-04T10:17:28.533Z,7.30
2022-10-04T10:21:39.568Z,10.73
2022-10-04T10:25:58.451Z,5.23
2022-10-04T10:30:26.154Z,9.50
2022-10-04T10:34:56.502Z,9.20
2022-10-04T10:39:12.880Z,8.57
2022-10-04T10:43:33.530Z,8.33
2022-10-04T10:47:38.963Z,5.50
2022-10-04T10:52:17.692Z,6.50
2022-10-04T10:56:45.353Z,9.50
2022-10-04T11:01:09.055Z,8.27
2022-10-04T11:05:32.323Z,5.50
2022-10-04T11:09:50.314Z,5.20
2022-10-04T11:14:09.464Z,6.13
2022-10-04T11:18:31.125Z,7.37
2022-10-04T11:22:52.698Z,5.27
2022-10-04T11:27:15.562Z,8.60
2022-10-04T11:31:26.289Z,5.80
2022-10-04T11:35:39.680Z,5.27
2022-10-04T11:39:47.312Z,5.33
2022-10-04T11:43:57.862Z,9.03
2022-10-04T11:48:20.784Z,7.57
2022-10-04T11:52:32.402Z,4.40
2022-10-04T11:56:41.768Z,5.10
2022-10-04T12:00:55.896Z,4.57
2022-10-04T12:05:22.069Z,7.00
2022-10-04T12:09:43.625Z,5.43
2022-10-04T12:13:51.468Z,5.77
2022-10-04T12:18:31.895Z,5.97
2022-10-04T12:22:42.633Z,3.73
2022-10-04T12:26:50.868Z,6.57
2022-10-04T12:31:01.821Z,4.57
2022-10-04T12:35:15.414Z,7.83
2022-10-04T12:39:41.545Z,4.17
2022-10-04T12:44:12.113Z,7.37
2022-10-04T12:48:32.473Z,5.40
2022-10-04T12:52:43.011Z,7.07
2022-10-04T12:56:56.659Z,6.63
2022-10-04T13:01:02.467Z,8.47
2022-10-04T13:05:29.031Z,3.87
2022-10-04T13:09:41.250Z,8.20
2022-10-04T13:14:07.072Z,4.33
2022-10-04T13:18:28.915Z,6.00
2022-10-04T13:23:06.921Z,4.37
2022-10-04T13:27:14.815Z,7.37
2022-10-04T13:31:28.057Z,4.97
2022-10-04T13:35:49.373Z,6.03
2022-10-04T13:39:57.453Z,7.37
2022-10-04T13:44:07.953Z,4.70
2022-10-04T13:48:21.993Z,5.13
2022-10-04T13:53:13.443Z,6.73
2022-10-04T13:57:21.350Z,5.33
2022-10-04T14:01:42.746Z,5.67
2022-10-04T14:06:11.302Z,4.73
2022-10-04T14:10:47.538Z,5.77
2022-10-04T14:15:14.975Z,5.70
2022-10-04T14:19:23.018Z,5.27
2022-10-04T14:24:01.931Z,6.03
2022-10-04T14:28:37.868Z,4.63
2022-10-04T14:33:07.562Z,7.93
2022-10-04T14:37:13.337Z,4.57
2022-10-04T14:41:34.769Z,5.93
2022-10-04T14:45:42.875Z,4.73
2022-10-04T14:50:04.467Z,7.73
2022-10-04T14:54:15.016Z,4.50
2022-10-04T14:58:29.315Z,6.60
2022-10-04T15:02:36.979Z,4.57
2022-10-04T15:06:48.740Z,4.40
2022-10-04T15:11:03.074Z,6.83
2022-10-04T15:15:13.781Z,4.77
2022-10-04T15:19:27.646Z,5.00
2022-10-04T15:23:45.326Z,5.83
2022-10-04T15:27:50.174Z,10.73
2022-10-04T15:32:07.188Z,5.40
2022-10-04T15:36:15.507Z,6.07
2022-10-04T15:40:26.596Z,5.70
2022-10-04T15:44:31.482Z,5.43
2022-10-04T15:48:36.434Z,11.83
2022-10-04T15:52:42.444Z,7.40
2022-10-04T15:56:49.846Z,5.37
2022-10-04T16:01:09.681Z,6.37
2022-10-04T16:05:38.830Z,8.27
2022-10-04T16:09:49.600Z,5.47
2022-10-04T16:13:57.621Z,5.87
2022-10-04T16:18:39.924Z,7.10
2022-10-04T16:22:44.679Z,6.00
2022-10-04T16:26:51.382Z,5.90
2022-10-04T16:31:19.937Z,7.87
2022-10-04T16:35:43.470Z,8.07
2022-10-04T16:40:02.532Z,6.13
2022-10-04T16:44:07.761Z,9.23
2022-10-04T16:48:19.486Z,6.43
2022-10-04T16:52:27.588Z,6.10
2022-10-04T16:56:32.240Z,8.60
2022-10-04T17:00:37.124Z,8.03
2022-10-04T17:04:49.628Z,6.07
2022-10-04T17:09:22.843Z,7.37
2022-10-04T17:13:56.908Z,7.90
2022-10-04T17:18:34.554Z,6.90
2022-10-04T17:22:56.652Z,8.17
2022-10-04T17:27:06.175Z,7.77
2022-10-04T17:31:12.625Z,7.23
2022-10-04T17:35:47.848Z,7.27
2022-10-04T17:40:09.682Z,6.13
2022-10-04T17:44:27.244Z,7.10
2022-10-04T17:48:49.898Z,7.30
2022-10-04T17:53:17.481Z,7.10
2022-10-04T17:57:49.795Z,5.80
2022-10-04T18:02:04.343Z,7.33
2022-10-04T18:06:15.933Z,7.43
2022-10-04T18:10:30.142Z,8.25
2022-10-04T18:14:51.101Z,6.73
2022-10-04T18:18:53.962Z,10.07
2022-10-04T18:23:02.429Z,8.00
2022-10-04T18:27:07.430Z,8.67
2022-10-04T18:31:24.820Z,15.23
2022-10-04T18:35:34.235Z,7.87
2022-10-04T18:39:45.044Z,8.27
2022-10-04T18:43:53.245Z,11.47
2022-10-04T18:47:56.391Z,7.22
2022-10-04T18:52:13.325Z,6.83
2022-10-04T18:56:16.604Z,19.53
2022-10-04T19:00:36.070Z,6.97
2022-10-04T19:05:15.641Z,8.65
2022-10-04T19:09:37.757Z,8.03
2022-10-04T19:14:07.465Z,12.83
2022-10-04T19:18:18.078Z,11.97
2022-10-04T19:22:32.861Z,14.10
2022-10-04T19:26:39.671Z,9.90
2022-10-04T19:30:54.488Z,13.03
2022-10-04T19:35:35.559Z,17.47
2022-10-04T19:39:44.001Z,13.37
2022-10-04T19:43:53.647Z,11.00
2022-10-04T19:47:59.347Z,9.60
2022-10-04T19:52:16.361Z,8.50
2022-10-04T19:56:20.861Z,10.23
2022-10-04T20:00:22.287Z,9.30
2022-10-04T20:04:35.539Z,8.87
2022-10-04T20:08:53.450Z,6.40
2022-10-04T20:13:21.595Z,8.87
2022-10-04T20:17:31.021Z,7.53
2022-10-04T20:21:32.973Z,7.57
2022-10-04T20:25:46.591Z,14.93
2022-10-04T20:29:56.293Z,9.83
2022-10-04T20:34:07.235Z,8.50
2022-10-04T20:38:31.729Z,8.30
2022-10-04T20:42:31.990Z,9.07
2022-10-04T20:46:37.532Z,9.30
2022-10-04T20:50:41.743Z,8.47
2022-10-04T20:54:53.741Z,8.33
2022-10-04T20:58:58.843Z,8.67
2022-10-04T21:03:11.458Z,8.53
2022-10-04T21:07:23.290Z,7.60
2022-10-04T21:11:28.101Z,11.77
2022-10-04T21:15:29.131Z,8.07
2022-10-04T21:19:42.624Z,8.30
2022-10-04T21:23:43.609Z,7.42
2022-10-04T21:27:44.880Z,8.43
2022-10-04T21:31:47.332Z,7.43
2022-10-04T21:35:51.880Z,6.47
2022-10-04T21:39:53.916Z,7.43
2022-10-04T21:43:55.072Z,10.03
2022-10-04T21:47:56.005Z,7.40
2022-10-04T21:51:56.989Z,9.23
2022-10-04T21:55:58.136Z,8.13
2022-10-04T21:59:59.141Z,8.97
2022-10-04T22:04:00.107Z,9.33
2022-10-04T22:08:01.056Z,10.47
2022-10-04T22:12:02.143Z,11.50
2022-10-04T22:16:03.752Z,9.93
2022-10-04T22:20:05.958Z,14.33
2022-10-04T22:24:16.282Z,10.37
2022-10-04T22:28:25.287Z,11.33
2022-10-04T22:32:27.550Z,13.50
2022-10-04T22:36:37.313Z,10.23
2022-10-04T22:40:38.187Z,14.03
2022-10-04T22:44:40.666Z,10.87
2022-10-04T22:48:44.052Z,14.10
2022-10-04T22:52:45.019Z,10.03
2022-10-04T22:56:47.275Z,15.93
2022-10-04T23:00:48.969Z,9.67
2022-10-04T23:04:52.370Z,11.67
2022-10-04T23:08:53.338Z,11.07
2022-10-04T23:12:54.287Z,12.07
2022-10-04T23:16:55.116Z,11.70
2022-10-04T23:20:59.913Z,11.13
2022-10-04T23:25:01.525Z,10.13
2022-10-04T23:29:18.748Z,11.97
2022-10-04T23:33:21.874Z,11.23
2022-10-04T23:37:25.771Z,12.63
2022-10-04T23:41:26.805Z,12.30
2022-10-04T23:45:27.953Z,11.80
2022-10-04T23:49:29.034Z,11.90
2022-10-04T23:53:32.355Z,13.03
2022-10-04T23:57:33.333Z,15.03
